createdAt,value
2023-03-22T00:01:20.241Z,10.43
2023-03-22T00:03:48.590Z,8.65
2023-03-22T00:06:16.442Z,7.97
2023-03-22T00:08:44.287Z,7.38
2023-03-22T00:11:12.978Z,8.57
2023-03-22T00:13:43.019Z,9.23
2023-03-22T00:16:11.061Z,7.30
2023-03-22T00:18:38.437Z,6.93
2023-03-22T00:21:05.982Z,10.05
2023-03-22T00:23:33.098Z,9.15
2023-03-22T00:26:00.220Z,9.48
2023-03-22T00:28:27.359Z,8.82
2023-03-22T00:30:57.564Z,7.73
2023-03-22T00:33:25.908Z,7.88
2023-03-22T00:35:55.053Z,8.82
2023-03-22T00:38:32.527Z,7.88
2023-03-22T00:41:16.312Z,9.68
2023-03-22T00:43:44.063Z,7.63
2023-03-22T00:46:11.697Z,8.57
2023-03-22T00:48:39.722Z,7.20
2023-03-22T00:51:07.680Z,7.97
2023-03-22T00:53:36.611Z,8.50
2023-03-22T00:56:06.605Z,9.43
2023-03-22T00:58:33.897Z,8.55
2023-03-22T01:01:01.079Z,6.82
2023-03-22T01:03:28.325Z,7.18
2023-03-22T01:05:55.641Z,6.88
2023-03-22T01:08:24.761Z,5.23
2023-03-22T01:10:52.207Z,9.43
2023-03-22T01:13:19.703Z,5.68
2023-03-22T01:15:50.848Z,8.88
2023-03-22T01:18:18.320Z,9.23
2023-03-22T01:20:45.609Z,7.37
2023-03-22T01:23:14.010Z,8.82
2023-03-22T01:25:41.768Z,9.18
2023-03-22T01:28:09.762Z,6.95
2023-03-22T01:30:39.853Z,7.45
2023-03-22T01:33:07.789Z,6.53
2023-03-22T01:35:36.055Z,5.20
2023-03-22T01:38:04.102Z,9.68
2023-03-22T01:40:31.347Z,9.60
2023-03-22T01:42:58.371Z,6.85
2023-03-22T01:45:43.763Z,6.70
2023-03-22T01:48:17.817Z,8.23
2023-03-22T01:50:49.846Z,7.85
2023-03-22T01:53:19.036Z,7.05
2023-03-22T01:55:46.719Z,7.65
2023-03-22T01:58:17.974Z,7.63
2023-03-22T02:00:47.266Z,7.63
2023-03-22T02:03:16.884Z,7.70
2023-03-22T02:05:44.220Z,5.50
2023-03-22T02:08:15.092Z,7.03
2023-03-22T02:10:42.508Z,8.03
2023-03-22T02:13:20.928Z,7.93
2023-03-22T02:16:00.018Z,6.63
2023-03-22T02:18:54.970Z,5.35
2023-03-22T02:21:35.683Z,6.65
2023-03-22T02:24:35.387Z,7.80
2023-03-22T02:27:20.602Z,6.65
2023-03-22T02:29:54.677Z,7.80
2023-03-22T02:32:30.271Z,7.80
2023-03-22T02:35:29.615Z,5.97
2023-03-22T02:38:10.984Z,6.43
2023-03-22T02:41:00.510Z,5.57
2023-03-22T02:43:57.057Z,6.97
2023-03-22T02:46:31.636Z,7.20
2023-03-22T02:49:12.081Z,5.03
2023-03-22T02:51:43.611Z,7.40
2023-03-22T02:54:21.190Z,6.35
2023-03-22T02:57:01.074Z,6.95
2023-03-22T02:59:29.752Z,6.32
2023-03-22T03:01:59.609Z,7.43
2023-03-22T03:04:33.429Z,8.43
2023-03-22T03:07:07.547Z,7.00
2023-03-22T03:09:35.818Z,7.15
2023-03-22T03:12:03.194Z,8.10
2023-03-22T03:14:32.054Z,6.55
2023-03-22T03:17:20.291Z,5.80
2023-03-22T03:20:02.705Z,6.20
2023-03-22T03:22:49.359Z,8.18
2023-03-22T03:25:38.440Z,7.43
2023-03-22T03:28:30.326Z,8.55
2023-03-22T03:31:03.088Z,7.80
2023-03-22T03:33:32.375Z,8.90
2023-03-22T03:36:03.023Z,7.13
2023-03-22T03:38:31.973Z,8.30
2023-03-22T03:41:01.680Z,8.18
2023-03-22T03:43:28.951Z,8.73
2023-03-22T03:45:56.712Z,7.78
2023-03-22T03:48:28.355Z,7.97
2023-03-22T03:50:56.824Z,7.28
2023-03-22T03:53:24.045Z,11.25
2023-03-22T03:55:51.095Z,11.63
2023-03-22T03:58:18.205Z,8.27
2023-03-22T04:00:46.621Z,9.82
2023-03-22T04:03:14.358Z,8.90
2023-03-22T04:05:41.439Z,7.68
2023-03-22T04:08:08.798Z,8.03
2023-03-22T04:10:35.965Z,10.60
2023-03-22T04:13:03.247Z,9.60
2023-03-22T04:15:30.330Z,12.50
2023-03-22T04:17:57.396Z,11.40
2023-03-22T04:20:26.176Z,10.80
2023-03-22T04:22:53.271Z,9.10
2023-03-22T04:25:22.675Z,10.15
2023-03-22T04:27:51.302Z,8.40
2023-03-22T04:30:22.798Z,9.43
2023-03-22T04:32:50.230Z,8.17
2023-03-22T04:35:17.444Z,8.70
2023-03-22T04:37:45.630Z,10.52
2023-03-22T04:40:16.122Z,10.45
2023-03-22T04:42:44.363Z,7.35
2023-03-22T04:45:12.464Z,8.57
2023-03-22T04:47:40.550Z,9.68
2023-03-22T04:50:08.480Z,8.55
2023-03-22T04:52:35.735Z,8.57
2023-03-22T04:55:02.934Z,10.48
2023-03-22T04:57:30.115Z,9.57
2023-03-22T04:59:57.213Z,9.50
2023-03-22T05:02:24.300Z,9.68
2023-03-22T05:04:51.537Z,7.18
2023-03-22T05:07:18.578Z,7.05
2023-03-22T05:09:45.752Z,7.83
2023-03-22T05:12:13.533Z,7.05
2023-03-22T05:14:41.141Z,6.78
2023-03-22T05:17:08.549Z,7.50
2023-03-22T05:19:35.728Z,7.35
2023-03-22T05:22:02.802Z,6.63
2023-03-22T05:24:30.397Z,8.73
2023-03-22T05:27:01.014Z,9.10
2023-03-22T05:29:28.447Z,8.93
2023-03-22T05:31:55.771Z,8.60
2023-03-22T05:34:22.803Z,10.13
2023-03-22T05:36:51.868Z,7.57
2023-03-22T05:39:19.017Z,8.45
2023-03-22T05:41:46.382Z,8.38
2023-03-22T05:44:14.000Z,7.20
2023-03-22T05:46:41.150Z,7.03
2023-03-22T05:49:09.084Z,7.88
2023-03-22T05:51:41.947Z,6.85
2023-03-22T05:54:09.784Z,6.90
2023-03-22T05:56:37.072Z,7.80
2023-03-22T05:59:04.858Z,7.50
2023-03-22T06:01:33.381Z,7.25
2023-03-22T06:04:00.819Z,7.88
2023-03-22T06:06:28.132Z,8.80
2023-03-22T06:09:06.997Z,10.10
2023-03-22T06:11:41.422Z,7.37
2023-03-22T06:14:08.464Z,7.88
2023-03-22T06:16:35.604Z,7.93
2023-03-22T06:19:02.819Z,8.48
2023-03-22T06:21:29.851Z,8.32
2023-03-22T06:23:56.913Z,8.17
2023-03-22T06:26:24.078Z,11.68
2023-03-22T06:28:51.190Z,10.82
2023-03-22T06:31:18.353Z,8.98
2023-03-22T06:33:47.123Z,7.90
2023-03-22T06:36:14.440Z,7.87
2023-03-22T06:38:44.604Z,8.43
2023-03-22T06:41:11.941Z,7.85
2023-03-22T06:43:38.979Z,9.27
2023-03-22T06:46:06.066Z,8.23
2023-03-22T06:48:33.158Z,7.13
2023-03-22T06:51:00.819Z,8.07
2023-03-22T06:53:27.873Z,8.95
2023-03-22T06:55:55.496Z,9.30
2023-03-22T06:58:23.624Z,17.15
2023-03-22T07:00:50.784Z,9.80
2023-03-22T07:03:17.952Z,8.77
2023-03-22T07:05:45.097Z,8.30
2023-03-22T07:08:12.139Z,13.05
2023-03-22T07:10:39.447Z,10.50
2023-03-22T07:13:06.672Z,9.43
2023-03-22T07:15:34.353Z,9.27
2023-03-22T07:18:01.987Z,9.40
2023-03-22T07:20:29.066Z,11.60
2023-03-22T07:22:56.249Z,10.45
2023-03-22T07:25:23.356Z,8.57
2023-03-22T07:27:50.524Z,10.02
2023-03-22T07:30:17.835Z,8.00
2023-03-22T07:32:45.033Z,7.28
2023-03-22T07:35:12.062Z,8.75
2023-03-22T07:37:39.121Z,8.07
2023-03-22T07:40:07.073Z,8.55
2023-03-22T07:42:34.754Z,8.63
2023-03-22T07:45:01.997Z,8.27
2023-03-22T07:47:40.501Z,9.55
2023-03-22T07:50:09.805Z,7.83
2023-03-22T07:52:37.067Z,6.85
2023-03-22T07:55:05.024Z,8.30
2023-03-22T07:57:32.372Z,8.80
2023-03-22T07:59:59.504Z,6.32
2023-03-22T08:02:26.633Z,10.53
2023-03-22T08:04:56.504Z,8.13
2023-03-22T08:07:25.290Z,8.52
2023-03-22T08:09:52.693Z,8.30
2023-03-22T08:12:19.849Z,6.18
2023-03-22T08:14:50.756Z,10.83
2023-03-22T08:17:18.856Z,8.25
2023-03-22T08:19:46.362Z,5.95
2023-03-22T08:22:14.028Z,6.50
2023-03-22T08:24:41.432Z,7.80
2023-03-22T08:27:08.738Z,7.73
2023-03-22T08:29:37.508Z,7.05
2023-03-22T08:32:05.720Z,4.57
2023-03-22T08:34:38.146Z,7.10
2023-03-22T08:37:06.526Z,5.65
2023-03-22T08:39:33.867Z,7.03
2023-03-22T08:42:02.800Z,10.30
2023-03-22T08:44:30.141Z,8.18
2023-03-22T08:46:57.308Z,11.02
2023-03-22T08:49:24.659Z,7.75
2023-03-22T08:51:51.730Z,8.03
2023-03-22T08:54:18.952Z,4.45
2023-03-22T08:56:46.883Z,7.65
2023-03-22T08:59:14.051Z,6.78
2023-03-22T09:01:41.248Z,10.63
2023-03-22T09:04:10.538Z,5.73
2023-03-22T09:06:38.687Z,13.00
2023-03-22T09:09:06.402Z,9.43
2023-03-22T09:11:34.641Z,7.90
2023-03-22T09:14:01.882Z,5.85
2023-03-22T09:16:29.172Z,5.77
2023-03-22T09:18:56.284Z,6.25
2023-03-22T09:21:23.660Z,9.00
2023-03-22T09:23:50.807Z,6.93
2023-03-22T09:26:18.834Z,10.00
2023-03-22T09:28:46.800Z,5.13
2023-03-22T09:31:14.025Z,18.92
2023-03-22T09:33:41.724Z,6.45
2023-03-22T09:36:09.727Z,6.20
2023-03-22T09:38:36.954Z,5.47
2023-03-22T09:41:17.001Z,4.17
2023-03-22T09:43:49.516Z,9.75
2023-03-22T09:46:44.719Z,4.95
2023-03-22T09:49:18.558Z,4.60
2023-03-22T09:51:55.430Z,5.07
2023-03-22T09:54:36.430Z,3.43
2023-03-22T09:57:24.576Z,4.78
2023-03-22T10:00:11.109Z,3.08
2023-03-22T10:02:51.289Z,4.63
2023-03-22T10:05:39.721Z,3.58
2023-03-22T10:08:10.302Z,4.70
2023-03-22T10:10:46.062Z,3.13
2023-03-22T10:13:31.797Z,4.43
2023-03-22T10:16:05.962Z,3.85
2023-03-22T10:18:39.602Z,5.00
2023-03-22T10:21:08.694Z,4.63
2023-03-22T10:23:43.944Z,3.88
2023-03-22T10:26:20.293Z,4.15
2023-03-22T10:28:53.987Z,6.45
2023-03-22T10:31:21.355Z,3.38
2023-03-22T10:33:52.213Z,3.53
2023-03-22T10:36:22.350Z,6.53
2023-03-22T10:38:54.937Z,7.95
2023-03-22T10:41:24.709Z,5.57
2023-03-22T10:43:58.408Z,4.85
2023-03-22T10:46:28.300Z,6.00
2023-03-22T10:48:58.574Z,4.85
2023-03-22T10:51:48.703Z,11.20
2023-03-22T10:54:17.874Z,5.05
2023-03-22T10:56:46.173Z,5.63
2023-03-22T10:59:41.703Z,4.67
2023-03-22T11:02:32.411Z,3.58
2023-03-22T11:05:02.338Z,4.22
2023-03-22T11:07:36.455Z,3.90
2023-03-22T11:10:09.803Z,5.80
2023-03-22T11:12:46.846Z,3.57
2023-03-22T11:15:24.408Z,6.45
2023-03-22T11:17:52.388Z,5.35
2023-03-22T11:20:19.810Z,4.30
2023-03-22T11:22:48.078Z,5.63
2023-03-22T11:25:37.458Z,4.00
2023-03-22T11:28:04.411Z,7.40
2023-03-22T11:30:32.912Z,5.25
2023-03-22T11:33:19.347Z,4.25
2023-03-22T11:35:53.846Z,5.25
2023-03-22T11:38:30.894Z,3.30
2023-03-22T11:41:03.305Z,3.38
2023-03-22T11:43:36.516Z,4.90
2023-03-22T11:46:04.338Z,5.25
2023-03-22T11:48:32.916Z,4.78
2023-03-22T11:51:20.427Z,7.87
2023-03-22T11:53:48.354Z,4.18
2023-03-22T11:56:19.000Z,3.40
2023-03-22T11:59:01.367Z,4.75
2023-03-22T12:02:17.990Z,3.75
2023-03-22T12:04:48.407Z,4.33
2023-03-22T12:07:17.440Z,5.78
2023-03-22T12:09:51.354Z,4.50
2023-03-22T12:12:26.106Z,3.90
2023-03-22T12:15:17.075Z,3.10
2023-03-22T12:18:04.081Z,4.03
2023-03-22T12:20:48.462Z,3.88
2023-03-22T12:23:20.716Z,3.50
2023-03-22T12:25:50.873Z,4.03
2023-03-22T12:28:21.348Z,4.85
2023-03-22T12:30:51.535Z,2.77
2023-03-22T12:33:37.609Z,2.88
2023-03-22T12:36:06.243Z,3.25
2023-03-22T12:38:42.682Z,4.03
2023-03-22T12:41:12.831Z,5.93
2023-03-22T12:43:57.275Z,4.43
2023-03-22T12:46:27.923Z,5.13
2023-03-22T12:49:01.107Z,2.85
2023-03-22T12:51:28.197Z,3.80
2023-03-22T12:53:57.675Z,4.35
2023-03-22T12:56:27.927Z,2.10
2023-03-22T12:59:00.376Z,3.08
2023-03-22T13:01:35.970Z,3.83
2023-03-22T13:04:34.141Z,2.78
2023-03-22T13:07:13.908Z,2.80
2023-03-22T13:09:48.579Z,3.40
2023-03-22T13:12:18.507Z,4.97
2023-03-22T13:15:28.266Z,2.92
2023-03-22T13:17:59.111Z,4.80
2023-03-22T13:20:28.851Z,2.25
2023-03-22T13:22:55.951Z,4.53
2023-03-22T13:25:34.383Z,3.42
2023-03-22T13:28:23.005Z,2.90
2023-03-22T13:30:55.095Z,4.75
2023-03-22T13:33:34.804Z,4.63
2023-03-22T13:36:23.945Z,5.10
2023-03-22T13:38:56.280Z,4.05
2023-03-22T13:41:36.171Z,4.68
2023-03-22T13:44:20.371Z,2.85
2023-03-22T13:46:52.495Z,3.03
2023-03-22T13:49:40.317Z,6.50
2023-03-22T13:52:08.224Z,2.75
2023-03-22T13:54:42.670Z,3.97
2023-03-22T13:57:20.806Z,3.08
2023-03-22T14:00:20.420Z,2.40
2023-03-22T14:02:48.833Z,2.80
2023-03-22T14:05:18.440Z,3.22
2023-03-22T14:07:56.959Z,3.35
2023-03-22T14:10:53.476Z,2.10
2023-03-22T14:13:31.903Z,5.50
2023-03-22T14:16:37.766Z,4.80
2023-03-22T14:19:09.021Z,2.63
2023-03-22T14:21:42.214Z,3.15
